sensor_id;sensor_type;location;lat;lon;timestamp;temperature;humidity
285;DHT22;127;48.770;9.212;2022-11-11T00:01:12;6.30;1.00
285;DHT22;127;48.770;9.212;2022-11-11T00:03:41;6.20;1.00
285;DHT22;127;48.770;9.212;2022-11-11T00:06:12;6.10;1.00
285;DHT22;127;48.770;9.212;2022-11-11T00:08:46;6.10;1.00
285;DHT22;127;48.770;9.212;2022-11-11T00:11:16;6.00;1.00
285;DHT22;127;48.770;9.212;2022-11-11T00:13:45;6.00;1.00
285;DHT22;127;48.770;9.212;2022-11-11T00:16:15;6.10;1.00
285;DHT22;127;48.770;9.212;2022-11-11T00:18:45;6.10;1.00
285;DHT22;127;48.770;9.212;2022-11-11T00:21:26;6.10;1.00
285;DHT22;127;48.770;9.212;2022-11-11T00:24:20;6.00;1.00
285;DHT22;127;48.770;9.212;2022-11-11T00:27:02;6.00;1.00
285;DHT22;127;48.770;9.212;2022-11-11T00:29:31;6.00;1.00
285;DHT22;127;48.770;9.212;2022-11-11T00:31:59;6.00;1.00
285;DHT22;127;48.770;9.212;2022-11-11T00:34:40;6.00;1.00
285;DHT22;127;48.770;9.212;2022-11-11T00:37:29;6.00;1.00
285;DHT22;127;48.770;9.212;2022-11-11T00:39:58;6.00;1.00
285;DHT22;127;48.770;9.212;2022-11-11T00:42:26;6.00;1.00
285;DHT22;127;48.770;9.212;2022-11-11T00:44:55;6.00;1.00
285;DHT22;127;48.770;9.212;2022-11-11T00:47:24;6.00;1.00
285;DHT22;127;48.770;9.212;2022-11-11T00:50:08;5.90;1.00
285;DHT22;127;48.770;9.212;2022-11-11T00:52:50;5.90;1.00
285;DHT22;127;48.770;9.212;2022-11-11T00:55:21;5.90;1.00
285;DHT22;127;48.770;9.212;2022-11-11T00:57:49;5.90;1.00
285;DHT22;127;48.770;9.212;2022-11-11T01:00:18;5.80;1.00
285;DHT22;127;48.770;9.212;2022-11-11T01:02:47;5.80;1.00
285;DHT22;127;48.770;9.212;2022-11-11T01:05:16;5.80;1.00
285;DHT22;127;48.770;9.212;2022-11-11T01:07:44;5.90;1.00
285;DHT22;127;48.770;9.212;2022-11-11T01:10:16;5.90;1.00
285;DHT22;127;48.770;9.212;2022-11-11T01:13:11;5.90;1.00
285;DHT22;127;48.770;9.212;2022-11-11T01:15:41;5.90;1.00
285;DHT22;127;48.770;9.212;2022-11-11T01:18:11;6.00;1.00
285;DHT22;127;48.770;9.212;2022-11-11T01:20:41;6.00;1.00
285;DHT22;127;48.770;9.212;2022-11-11T01:23:10;6.00;1.00
285;DHT22;127;48.770;9.212;2022-11-11T01:25:41;6.10;1.00
285;DHT22;127;48.770;9.212;2022-11-11T01:28:13;6.30;1.00
285;DHT22;127;48.770;9.212;2022-11-11T01:30:42;6.30;1.00
285;DHT22;127;48.770;9.212;2022-11-11T01:33:11;6.20;1.00
285;DHT22;127;48.770;9.212;2022-11-11T01:35:40;6.20;1.00
285;DHT22;127;48.770;9.212;2022-11-11T01:38:09;6.20;1.00
285;DHT22;127;48.770;9.212;2022-11-11T01:40:41;6.10;1.00
285;DHT22;127;48.770;9.212;2022-11-11T01:43:20;6.10;1.00
285;DHT22;127;48.770;9.212;2022-11-11T01:45:54;6.00;1.00
285;DHT22;127;48.770;9.212;2022-11-11T01:48:32;6.10;1.00
285;DHT22;127;48.770;9.212;2022-11-11T01:51:19;6.10;1.00
285;DHT22;127;48.770;9.212;2022-11-11T01:53:53;6.10;1.00
285;DHT22;127;48.770;9.212;2022-11-11T01:56:24;6.10;1.00
285;DHT22;127;48.770;9.212;2022-11-11T01:58:58;6.00;1.00
285;DHT22;127;48.770;9.212;2022-11-11T02:01:28;6.00;1.00
285;DHT22;127;48.770;9.212;2022-11-11T02:04:00;6.00;1.00
285;DHT22;127;48.770;9.212;2022-11-11T02:06:42;5.90;1.00
285;DHT22;127;48.770;9.212;2022-11-11T02:09:10;5.80;1.00
285;DHT22;127;48.770;9.212;2022-11-11T02:11:41;5.90;1.00
285;DHT22;127;48.770;9.212;2022-11-11T02:14:25;5.80;1.00
285;DHT22;127;48.770;9.212;2022-11-11T02:17:11;5.80;1.00
285;DHT22;127;48.770;9.212;2022-11-11T02:19:47;5.80;1.00
285;DHT22;127;48.770;9.212;2022-11-11T02:22:22;5.80;1.00
285;DHT22;127;48.770;9.212;2022-11-11T02:24:56;5.70;1.00
285;DHT22;127;48.770;9.212;2022-11-11T02:27:27;5.70;1.00
285;DHT22;127;48.770;9.212;2022-11-11T02:29:58;5.70;1.00
285;DHT22;127;48.770;9.212;2022-11-11T02:32:27;5.80;1.00
285;DHT22;127;48.770;9.212;2022-11-11T02:34:56;5.80;1.00
285;DHT22;127;48.770;9.212;2022-11-11T02:37:26;5.90;1.00
285;DHT22;127;48.770;9.212;2022-11-11T02:40:00;6.00;1.00
285;DHT22;127;48.770;9.212;2022-11-11T02:42:33;6.00;1.00
285;DHT22;127;48.770;9.212;2022-11-11T02:44:59;6.10;1.00
285;DHT22;127;48.770;9.212;2022-11-11T02:47:28;6.10;1.00
285;DHT22;127;48.770;9.212;2022-11-11T02:49:56;6.10;1.00
285;DHT22;127;48.770;9.212;2022-11-11T02:52:25;6.10;1.00
285;DHT22;127;48.770;9.212;2022-11-11T02:54:56;6.10;1.00
285;DHT22;127;48.770;9.212;2022-11-11T02:57:25;6.00;1.00
285;DHT22;127;48.770;9.212;2022-11-11T02:59:55;6.00;1.00
285;DHT22;127;48.770;9.212;2022-11-11T03:02:24;6.00;1.00
285;DHT22;127;48.770;9.212;2022-11-11T03:04:53;6.00;1.00
285;DHT22;127;48.770;9.212;2022-11-11T03:07:22;5.90;1.00
285;DHT22;127;48.770;9.212;2022-11-11T03:09:52;5.80;1.00
285;DHT22;127;48.770;9.212;2022-11-11T03:12:23;5.90;1.00
285;DHT22;127;48.770;9.212;2022-11-11T03:14:52;5.90;1.00
285;DHT22;127;48.770;9.212;2022-11-11T03:17:20;6.00;1.00
285;DHT22;127;48.770;9.212;2022-11-11T03:20:01;6.00;1.00
285;DHT22;127;48.770;9.212;2022-11-11T03:22:42;6.00;1.00
285;DHT22;127;48.770;9.212;2022-11-11T03:25:11;6.00;1.00
285;DHT22;127;48.770;9.212;2022-11-11T03:27:55;5.90;1.00
285;DHT22;127;48.770;9.212;2022-11-11T03:30:23;5.80;1.00
285;DHT22;127;48.770;9.212;2022-11-11T03:32:52;5.70;1.00
285;DHT22;127;48.770;9.212;2022-11-11T03:35:21;5.60;1.00
285;DHT22;127;48.770;9.212;2022-11-11T03:37:49;5.40;1.00
285;DHT22;127;48.770;9.212;2022-11-11T03:40:30;5.30;1.00
285;DHT22;127;48.770;9.212;2022-11-11T03:43:02;5.30;1.00
285;DHT22;127;48.770;9.212;2022-11-11T03:45:31;5.20;1.00
285;DHT22;127;48.770;9.212;2022-11-11T03:47:59;5.10;1.00
285;DHT22;127;48.770;9.212;2022-11-11T03:50:28;5.10;1.00
285;DHT22;127;48.770;9.212;2022-11-11T03:52:56;5.00;1.00
285;DHT22;127;48.770;9.212;2022-11-11T03:55:26;5.00;1.00
285;DHT22;127;48.770;9.212;2022-11-11T03:57:54;5.00;1.00
285;DHT22;127;48.770;9.212;2022-11-11T04:00:27;4.90;1.00
285;DHT22;127;48.770;9.212;2022-11-11T04:03:03;5.00;1.00
285;DHT22;127;48.770;9.212;2022-11-11T04:05:45;5.00;1.00
285;DHT22;127;48.770;9.212;2022-11-11T04:08:26;5.00;1.00
285;DHT22;127;48.770;9.212;2022-11-11T04:11:10;4.90;1.00
285;DHT22;127;48.770;9.212;2022-11-11T04:13:41;5.00;1.00
285;DHT22;127;48.770;9.212;2022-11-11T04:16:25;5.00;1.00
285;DHT22;127;48.770;9.212;2022-11-11T04:18:53;5.00;1.00
285;DHT22;127;48.770;9.212;2022-11-11T04:21:34;4.90;1.00
285;DHT22;127;48.770;9.212;2022-11-11T04:24:13;4.90;1.00
285;DHT22;127;48.770;9.212;2022-11-11T04:26:57;4.80;1.00
285;DHT22;127;48.770;9.212;2022-11-11T04:29:26;4.90;1.00
285;DHT22;127;48.770;9.212;2022-11-11T04:31:59;4.90;1.00
285;DHT22;127;48.770;9.212;2022-11-11T04:34:41;4.90;1.00
285;DHT22;127;48.770;9.212;2022-11-11T04:37:10;5.00;1.00
285;DHT22;127;48.770;9.212;2022-11-11T04:39:39;5.00;1.00
285;DHT22;127;48.770;9.212;2022-11-11T04:42:21;5.00;1.00
285;DHT22;127;48.770;9.212;2022-11-11T04:44:49;5.10;1.00
285;DHT22;127;48.770;9.212;2022-11-11T04:47:33;5.00;1.00
285;DHT22;127;48.770;9.212;2022-11-11T04:50:02;5.10;1.00
285;DHT22;127;48.770;9.212;2022-11-11T04:52:31;5.00;1.00
285;DHT22;127;48.770;9.212;2022-11-11T04:55:00;5.00;1.00
285;DHT22;127;48.770;9.212;2022-11-11T04:57:53;5.00;1.00
285;DHT22;127;48.770;9.212;2022-11-11T05:00:21;5.00;1.00
285;DHT22;127;48.770;9.212;2022-11-11T05:02:55;5.00;1.00
285;DHT22;127;48.770;9.212;2022-11-11T05:05:37;5.00;1.00
285;DHT22;127;48.770;9.212;2022-11-11T05:08:18;5.00;1.00
285;DHT22;127;48.770;9.212;2022-11-11T05:10:59;4.90;1.00
285;DHT22;127;48.770;9.212;2022-11-11T05:13:27;4.90;1.00
285;DHT22;127;48.770;9.212;2022-11-11T05:16:13;4.90;1.00
285;DHT22;127;48.770;9.212;2022-11-11T05:18:58;4.90;1.00
285;DHT22;127;48.770;9.212;2022-11-11T05:21:39;4.90;1.00
285;DHT22;127;48.770;9.212;2022-11-11T05:24:08;4.90;1.00
285;DHT22;127;48.770;9.212;2022-11-11T05:26:49;4.90;1.00
285;DHT22;127;48.770;9.212;2022-11-11T05:29:18;4.90;1.00
285;DHT22;127;48.770;9.212;2022-11-11T05:31:46;4.90;1.00
285;DHT22;127;48.770;9.212;2022-11-11T05:34:17;4.90;1.00
285;DHT22;127;48.770;9.212;2022-11-11T05:36:46;4.80;1.00
285;DHT22;127;48.770;9.212;2022-11-11T05:39:15;4.70;1.00
285;DHT22;127;48.770;9.212;2022-11-11T05:41:43;4.60;1.00
285;DHT22;127;48.770;9.212;2022-11-11T05:44:12;4.60;1.00
285;DHT22;127;48.770;9.212;2022-11-11T05:46:40;4.60;1.00
285;DHT22;127;48.770;9.212;2022-11-11T05:49:09;4.50;1.00
285;DHT22;127;48.770;9.212;2022-11-11T05:51:46;4.50;1.00
285;DHT22;127;48.770;9.212;2022-11-11T05:54:15;4.50;1.00
285;DHT22;127;48.770;9.212;2022-11-11T05:56:43;4.50;1.00
285;DHT22;127;48.770;9.212;2022-11-11T05:59:12;4.50;1.00
285;DHT22;127;48.770;9.212;2022-11-11T06:01:41;4.60;1.00
285;DHT22;127;48.770;9.212;2022-11-11T06:04:10;4.60;1.00
285;DHT22;127;48.770;9.212;2022-11-11T06:06:38;4.70;1.00
285;DHT22;127;48.770;9.212;2022-11-11T06:09:10;4.70;1.00
285;DHT22;127;48.770;9.212;2022-11-11T06:11:39;4.80;1.00
285;DHT22;127;48.770;9.212;2022-11-11T06:14:07;4.80;1.00
285;DHT22;127;48.770;9.212;2022-11-11T06:16:36;4.80;1.00
285;DHT22;127;48.770;9.212;2022-11-11T06:19:04;4.90;1.00
285;DHT22;127;48.770;9.212;2022-11-11T06:21:33;4.90;1.00
285;DHT22;127;48.770;9.212;2022-11-11T06:24:24;5.00;1.00
285;DHT22;127;48.770;9.212;2022-11-11T06:26:53;5.10;1.00
285;DHT22;127;48.770;9.212;2022-11-11T06:29:19;5.10;1.00
285;DHT22;127;48.770;9.212;2022-11-11T06:31:47;5.20;1.00
285;DHT22;127;48.770;9.212;2022-11-11T06:34:16;5.20;1.00
285;DHT22;127;48.770;9.212;2022-11-11T06:36:45;5.20;1.00
285;DHT22;127;48.770;9.212;2022-11-11T06:39:13;5.20;1.00
285;DHT22;127;48.770;9.212;2022-11-11T06:41:44;5.30;1.00
285;DHT22;127;48.770;9.212;2022-11-11T06:44:13;5.30;1.00
285;DHT22;127;48.770;9.212;2022-11-11T06:46:42;5.10;1.00
285;DHT22;127;48.770;9.212;2022-11-11T06:49:10;5.00;1.00
285;DHT22;127;48.770;9.212;2022-11-11T06:51:39;5.00;1.00
285;DHT22;127;48.770;9.212;2022-11-11T06:54:07;5.00;1.00
285;DHT22;127;48.770;9.212;2022-11-11T06:56:36;5.00;1.00
285;DHT22;127;48.770;9.212;2022-11-11T06:59:07;5.00;1.00
285;DHT22;127;48.770;9.212;2022-11-11T07:01:36;5.00;1.00
285;DHT22;127;48.770;9.212;2022-11-11T07:04:05;5.00;1.00
285;DHT22;127;48.770;9.212;2022-11-11T07:06:33;4.90;1.00
285;DHT22;127;48.770;9.212;2022-11-11T07:09:02;4.70;1.00
285;DHT22;127;48.770;9.212;2022-11-11T07:11:31;4.60;1.00
285;DHT22;127;48.770;9.212;2022-11-11T07:13:59;4.60;1.00
285;DHT22;127;48.770;9.212;2022-11-11T07:16:30;4.60;1.00
285;DHT22;127;48.770;9.212;2022-11-11T07:18:59;4.50;1.00
285;DHT22;127;48.770;9.212;2022-11-11T07:21:28;4.60;1.00
285;DHT22;127;48.770;9.212;2022-11-11T07:23:56;4.50;1.00
285;DHT22;127;48.770;9.212;2022-11-11T07:26:25;4.70;1.00
285;DHT22;127;48.770;9.212;2022-11-11T07:28:53;4.80;1.00
285;DHT22;127;48.770;9.212;2022-11-11T07:31:22;4.90;1.00
285;DHT22;127;48.770;9.212;2022-11-11T07:33:54;4.90;1.00
285;DHT22;127;48.770;9.212;2022-11-11T07:36:22;5.00;1.00
285;DHT22;127;48.770;9.212;2022-11-11T07:38:51;5.00;1.00
285;DHT22;127;48.770;9.212;2022-11-11T07:41:20;5.10;1.00
285;DHT22;127;48.770;9.212;2022-11-11T07:43:48;5.20;1.00
285;DHT22;127;48.770;9.212;2022-11-11T07:46:17;5.30;1.00
285;DHT22;127;48.770;9.212;2022-11-11T07:48:46;5.50;1.00
285;DHT22;127;48.770;9.212;2022-11-11T07:51:17;5.50;1.00
285;DHT22;127;48.770;9.212;2022-11-11T07:53:46;5.70;1.00
285;DHT22;127;48.770;9.212;2022-11-11T07:56:14;5.80;1.00
285;DHT22;127;48.770;9.212;2022-11-11T07:58:43;6.00;1.00
285;DHT22;127;48.770;9.212;2022-11-11T08:01:12;6.20;1.00
285;DHT22;127;48.770;9.212;2022-11-11T08:03:40;6.30;1.00
285;DHT22;127;48.770;9.212;2022-11-11T08:06:20;6.40;1.00
285;DHT22;127;48.770;9.212;2022-11-11T08:08:49;6.40;1.00
285;DHT22;127;48.770;9.212;2022-11-11T08:11:18;6.60;1.00
285;DHT22;127;48.770;9.212;2022-11-11T08:14:07;6.70;1.00
285;DHT22;127;48.770;9.212;2022-11-11T08:16:33;6.80;1.00
285;DHT22;127;48.770;9.212;2022-11-11T08:19:02;6.90;1.00
285;DHT22;127;48.770;9.212;2022-11-11T08:21:33;7.10;1.00
285;DHT22;127;48.770;9.212;2022-11-11T08:24:02;7.20;1.00
285;DHT22;127;48.770;9.212;2022-11-11T08:26:31;7.20;1.00
285;DHT22;127;48.770;9.212;2022-11-11T08:29:00;7.30;1.00
285;DHT22;127;48.770;9.212;2022-11-11T08:31:28;7.30;1.00
285;DHT22;127;48.770;9.212;2022-11-11T08:33:59;7.30;1.00
285;DHT22;127;48.770;9.212;2022-11-11T08:36:28;7.40;1.00
285;DHT22;127;48.770;9.212;2022-11-11T08:38:59;7.70;1.00
285;DHT22;127;48.770;9.212;2022-11-11T08:41:28;7.80;1.00
285;DHT22;127;48.770;9.212;2022-11-11T08:43:57;8.00;1.00
285;DHT22;127;48.770;9.212;2022-11-11T08:46:26;8.20;1.00
285;DHT22;127;48.770;9.212;2022-11-11T08:48:55;8.10;99.90
285;DHT22;127;48.770;9.212;2022-11-11T08:51:23;8.30;99.90
285;DHT22;127;48.770;9.212;2022-11-11T08:53:52;8.30;99.90
285;DHT22;127;48.770;9.212;2022-11-11T08:56:24;8.20;99.90
285;DHT22;127;48.770;9.212;2022-11-11T08:58:52;8.00;99.90
285;DHT22;127;48.770;9.212;2022-11-11T09:01:21;8.00;99.90
285;DHT22;127;48.770;9.212;2022-11-11T09:03:50;8.10;99.90
285;DHT22;127;48.770;9.212;2022-11-11T09:06:18;8.30;99.90
285;DHT22;127;48.770;9.212;2022-11-11T09:08:47;8.30;99.90
285;DHT22;127;48.770;9.212;2022-11-11T09:11:16;8.40;99.90
285;DHT22;127;48.770;9.212;2022-11-11T09:13:48;8.20;99.90
285;DHT22;127;48.770;9.212;2022-11-11T09:16:17;8.00;99.90
285;DHT22;127;48.770;9.212;2022-11-11T09:18:45;8.20;99.90
285;DHT22;127;48.770;9.212;2022-11-11T09:21:14;8.20;99.90
285;DHT22;127;48.770;9.212;2022-11-11T09:23:43;8.10;99.90
285;DHT22;127;48.770;9.212;2022-11-11T09:26:11;8.30;99.90
285;DHT22;127;48.770;9.212;2022-11-11T09:28:40;8.20;99.90
285;DHT22;127;48.770;9.212;2022-11-11T09:31:11;8.20;99.90
285;DHT22;127;48.770;9.212;2022-11-11T09:33:40;8.10;99.90
285;DHT22;127;48.770;9.212;2022-11-11T09:36:09;8.20;99.90
285;DHT22;127;48.770;9.212;2022-11-11T09:38:37;8.20;99.90
285;DHT22;127;48.770;9.212;2022-11-11T09:41:17;8.40;99.90
285;DHT22;127;48.770;9.212;2022-11-11T09:43:53;8.40;99.90
285;DHT22;127;48.770;9.212;2022-11-11T09:46:35;8.50;99.90
285;DHT22;127;48.770;9.212;2022-11-11T09:49:27;8.60;99.90
285;DHT22;127;48.770;9.212;2022-11-11T09:52:02;8.90;99.90
285;DHT22;127;48.770;9.212;2022-11-11T09:54:34;9.10;99.90
285;DHT22;127;48.770;9.212;2022-11-11T09:57:09;9.70;99.90
285;DHT22;127;48.770;9.212;2022-11-11T09:59:45;10.50;99.90
285;DHT22;127;48.770;9.212;2022-11-11T10:02:28;11.00;99.90
285;DHT22;127;48.770;9.212;2022-11-11T10:05:05;11.10;99.90
285;DHT22;127;48.770;9.212;2022-11-11T10:07:36;11.40;99.90
285;DHT22;127;48.770;9.212;2022-11-11T10:10:13;12.30;99.90
285;DHT22;127;48.770;9.212;2022-11-11T10:12:48;14.00;99.90
285;DHT22;127;48.770;9.212;2022-11-11T10:15:19;14.60;99.90
285;DHT22;127;48.770;9.212;2022-11-11T10:18:14;15.60;99.90
285;DHT22;127;48.770;9.212;2022-11-11T10:20:51;16.40;99.90
285;DHT22;127;48.770;9.212;2022-11-11T10:23:24;16.90;99.90
285;DHT22;127;48.770;9.212;2022-11-11T10:25:55;17.00;99.90
285;DHT22;127;48.770;9.212;2022-11-11T10:28:26;16.00;99.90
285;DHT22;127;48.770;9.212;2022-11-11T10:30:57;17.40;99.90
285;DHT22;127;48.770;9.212;2022-11-11T10:33:34;17.40;99.90
285;DHT22;127;48.770;9.212;2022-11-11T10:36:13;17.20;99.90
285;DHT22;127;48.770;9.212;2022-11-11T10:38:48;16.80;99.90
285;DHT22;127;48.770;9.212;2022-11-11T10:41:22;17.80;99.90
285;DHT22;127;48.770;9.212;2022-11-11T10:43:52;18.90;99.90
285;DHT22;127;48.770;9.212;2022-11-11T10:46:23;19.00;99.90
285;DHT22;127;48.770;9.212;2022-11-11T10:48:59;20.40;99.90
285;DHT22;127;48.770;9.212;2022-11-11T10:51:32;21.40;99.90
285;DHT22;127;48.770;9.212;2022-11-11T10:54:07;20.00;99.90
285;DHT22;127;48.770;9.212;2022-11-11T10:56:43;21.10;99.90
285;DHT22;127;48.770;9.212;2022-11-11T10:59:17;22.10;99.90
285;DHT22;127;48.770;9.212;2022-11-11T11:01:53;21.60;99.90
285;DHT22;127;48.770;9.212;2022-11-11T11:04:32;20.90;99.90
285;DHT22;127;48.770;9.212;2022-11-11T11:07:04;19.40;99.90
285;DHT22;127;48.770;9.212;2022-11-11T11:09:40;20.10;99.90
285;DHT22;127;48.770;9.212;2022-11-11T11:12:14;20.10;99.90
285;DHT22;127;48.770;9.212;2022-11-11T11:14:48;21.80;99.90
285;DHT22;127;48.770;9.212;2022-11-11T11:17:23;21.30;99.90
285;DHT22;127;48.770;9.212;2022-11-11T11:20:10;20.80;99.90
285;DHT22;127;48.770;9.212;2022-11-11T11:22:48;21.00;99.90
285;DHT22;127;48.770;9.212;2022-11-11T11:25:19;21.20;99.90
285;DHT22;127;48.770;9.212;2022-11-11T11:27:50;19.40;99.90
285;DHT22;127;48.770;9.212;2022-11-11T11:30:21;19.70;99.90
285;DHT22;127;48.770;9.212;2022-11-11T11:32:56;19.80;99.90
285;DHT22;127;48.770;9.212;2022-11-11T11:35:35;20.60;99.90
285;DHT22;127;48.770;9.212;2022-11-11T11:38:05;21.40;99.90
285;DHT22;127;48.770;9.212;2022-11-11T11:40:49;21.40;99.90
285;DHT22;127;48.770;9.212;2022-11-11T11:43:29;20.00;99.90
285;DHT22;127;48.770;9.212;2022-11-11T11:46:00;20.90;99.90
285;DHT22;127;48.770;9.212;2022-11-11T11:48:43;22.20;99.90
285;DHT22;127;48.770;9.212;2022-11-11T11:51:29;22.20;99.90
285;DHT22;127;48.770;9.212;2022-11-11T11:54:12;23.50;99.90
285;DHT22;127;48.770;9.212;2022-11-11T11:56:48;22.00;99.90
285;DHT22;127;48.770;9.212;2022-11-11T11:59:21;21.10;99.90
285;DHT22;127;48.770;9.212;2022-11-11T12:01:59;22.30;99.90
285;DHT22;127;48.770;9.212;2022-11-11T12:04:50;23.90;99.90
285;DHT22;127;48.770;9.212;2022-11-11T12:07:42;24.80;99.90
285;DHT22;127;48.770;9.212;2022-11-11T12:10:25;25.40;99.90
285;DHT22;127;48.770;9.212;2022-11-11T12:13:01;25.50;99.90
285;DHT22;127;48.770;9.212;2022-11-11T12:15:38;22.70;99.90
285;DHT22;127;48.770;9.212;2022-11-11T12:18:21;22.90;99.90
285;DHT22;127;48.770;9.212;2022-11-11T12:20:58;22.40;99.90
285;DHT22;127;48.770;9.212;2022-11-11T12:23:48;24.70;99.90
285;DHT22;127;48.770;9.212;2022-11-11T12:26:22;26.20;99.90
285;DHT22;127;48.770;9.212;2022-11-11T12:29:13;26.40;99.90
285;DHT22;127;48.770;9.212;2022-11-11T12:31:59;26.70;99.90
285;DHT22;127;48.770;9.212;2022-11-11T12:34:46;26.30;99.90
285;DHT22;127;48.770;9.212;2022-11-11T12:37:20;26.00;99.90
285;DHT22;127;48.770;9.212;2022-11-11T12:40:12;25.80;99.90
285;DHT22;127;48.770;9.212;2022-11-11T12:42:55;24.40;99.90
285;DHT22;127;48.770;9.212;2022-11-11T12:45:35;22.40;99.90
285;DHT22;127;48.770;9.212;2022-11-11T12:48:15;21.80;99.90
285;DHT22;127;48.770;9.212;2022-11-11T12:50:57;20.80;99.90
285;DHT22;127;48.770;9.212;2022-11-11T12:53:34;20.90;99.90
285;DHT22;127;48.770;9.212;2022-11-11T12:56:12;21.10;99.90
285;DHT22;127;48.770;9.212;2022-11-11T12:58:47;21.70;99.90
285;DHT22;127;48.770;9.212;2022-11-11T13:01:23;21.90;99.90
285;DHT22;127;48.770;9.212;2022-11-11T13:04:10;22.20;99.90
285;DHT22;127;48.770;9.212;2022-11-11T13:07:01;20.70;99.90
285;DHT22;127;48.770;9.212;2022-11-11T13:09:40;20.20;99.90
285;DHT22;127;48.770;9.212;2022-11-11T13:12:17;19.10;99.90
285;DHT22;127;48.770;9.212;2022-11-11T13:14:57;18.70;99.90
285;DHT22;127;48.770;9.212;2022-11-11T13:17:30;18.20;99.90
285;DHT22;127;48.770;9.212;2022-11-11T13:20:02;18.00;99.90
285;DHT22;127;48.770;9.212;2022-11-11T13:22:34;17.60;99.90
285;DHT22;127;48.770;9.212;2022-11-11T13:25:04;17.90;99.90
285;DHT22;127;48.770;9.212;2022-11-11T13:27:43;18.30;99.90
285;DHT22;127;48.770;9.212;2022-11-11T13:30:35;18.50;99.90
285;DHT22;127;48.770;9.212;2022-11-11T13:33:09;19.20;99.90
285;DHT22;127;48.770;9.212;2022-11-11T13:35:42;20.00;99.90
285;DHT22;127;48.770;9.212;2022-11-11T13:38:23;20.90;99.90
285;DHT22;127;48.770;9.212;2022-11-11T13:40:53;21.30;99.90
285;DHT22;127;48.770;9.212;2022-11-11T13:43:29;20.00;99.90
285;DHT22;127;48.770;9.212;2022-11-11T13:46:00;19.50;99.90
285;DHT22;127;48.770;9.212;2022-11-11T13:48:31;19.00;99.90
285;DHT22;127;48.770;9.212;2022-11-11T13:51:13;18.80;99.90
285;DHT22;127;48.770;9.212;2022-11-11T13:53:47;19.00;99.90
285;DHT22;127;48.770;9.212;2022-11-11T13:56:25;19.30;99.90
285;DHT22;127;48.770;9.212;2022-11-11T13:58:57;19.90;99.90
285;DHT22;127;48.770;9.212;2022-11-11T14:01:32;20.40;99.90
285;DHT22;127;48.770;9.212;2022-11-11T14:04:04;20.20;99.90
285;DHT22;127;48.770;9.212;2022-11-11T14:06:54;19.10;99.90
285;DHT22;127;48.770;9.212;2022-11-11T14:09:53;19.30;99.90
285;DHT22;127;48.770;9.212;2022-11-11T14:12:34;20.20;99.90
285;DHT22;127;48.770;9.212;2022-11-11T14:15:34;20.90;99.90
285;DHT22;127;48.770;9.212;2022-11-11T14:18:08;21.10;99.90
285;DHT22;127;48.770;9.212;2022-11-11T14:20:39;21.00;99.90
285;DHT22;127;48.770;9.212;2022-11-11T14:23:25;20.00;99.90
285;DHT22;127;48.770;9.212;2022-11-11T14:26:23;19.80;99.90
285;DHT22;127;48.770;9.212;2022-11-11T14:28:54;20.30;99.90
285;DHT22;127;48.770;9.212;2022-11-11T14:34:47;19.10;99.90
285;DHT22;127;48.770;9.212;2022-11-11T14:37:41;18.40;99.90
285;DHT22;127;48.770;9.212;2022-11-11T14:40:11;17.60;99.90
285;DHT22;127;48.770;9.212;2022-11-11T14:42:42;17.30;99.90
285;DHT22;127;48.770;9.212;2022-11-11T14:51:39;16.70;99.90
285;DHT22;127;48.770;9.212;2022-11-11T14:54:29;16.50;99.90
285;DHT22;127;48.770;9.212;2022-11-11T14:57:05;16.00;99.90
285;DHT22;127;48.770;9.212;2022-11-11T14:59:34;15.80;99.90
285;DHT22;127;48.770;9.212;2022-11-11T15:02:17;15.40;99.90
285;DHT22;127;48.770;9.212;2022-11-11T15:04:49;15.10;99.90
285;DHT22;127;48.770;9.212;2022-11-11T15:07:36;14.90;99.90
285;DHT22;127;48.770;9.212;2022-11-11T15:10:17;14.60;99.90
285;DHT22;127;48.770;9.212;2022-11-11T15:13:03;14.30;99.90
285;DHT22;127;48.770;9.212;2022-11-11T15:15:40;14.00;99.90
285;DHT22;127;48.770;9.212;2022-11-11T15:18:20;13.80;99.90
285;DHT22;127;48.770;9.212;2022-11-11T15:21:02;14.10;99.90
285;DHT22;127;48.770;9.212;2022-11-11T15:23:41;13.90;99.90
285;DHT22;127;48.770;9.212;2022-11-11T15:26:17;13.70;99.90
285;DHT22;127;48.770;9.212;2022-11-11T15:29:05;13.80;99.90
285;DHT22;127;48.770;9.212;2022-11-11T15:31:46;13.70;99.90
285;DHT22;127;48.770;9.212;2022-11-11T15:34:25;13.50;99.90
285;DHT22;127;48.770;9.212;2022-11-11T15:36:59;13.50;99.90
285;DHT22;127;48.770;9.212;2022-11-11T15:39:38;13.10;99.90
285;DHT22;127;48.770;9.212;2022-11-11T15:42:12;13.00;99.90
285;DHT22;127;48.770;9.212;2022-11-11T15:44:46;12.90;99.90
285;DHT22;127;48.770;9.212;2022-11-11T15:47:15;12.70;99.90
285;DHT22;127;48.770;9.212;2022-11-11T15:49:48;12.50;99.90
285;DHT22;127;48.770;9.212;2022-11-11T15:52:30;12.10;99.90
285;DHT22;127;48.770;9.212;2022-11-11T15:55:22;12.00;99.90
285;DHT22;127;48.770;9.212;2022-11-11T15:57:51;11.80;99.90
285;DHT22;127;48.770;9.212;2022-11-11T16:00:26;11.50;99.90
285;DHT22;127;48.770;9.212;2022-11-11T16:02:55;11.40;99.90
285;DHT22;127;48.770;9.212;2022-11-11T16:05:25;11.40;99.90
285;DHT22;127;48.770;9.212;2022-11-11T16:07:56;11.30;99.90
285;DHT22;127;48.770;9.212;2022-11-11T16:10:30;11.20;99.90
285;DHT22;127;48.770;9.212;2022-11-11T16:13:01;11.10;99.90
285;DHT22;127;48.770;9.212;2022-11-11T16:15:38;11.00;99.90
285;DHT22;127;48.770;9.212;2022-11-11T16:18:12;10.90;99.90
285;DHT22;127;48.770;9.212;2022-11-11T16:20:45;10.80;99.90
285;DHT22;127;48.770;9.212;2022-11-11T16:23:17;10.70;99.90
285;DHT22;127;48.770;9.212;2022-11-11T16:25:50;10.60;99.90
285;DHT22;127;48.770;9.212;2022-11-11T16:28:22;10.60;99.90
285;DHT22;127;48.770;9.212;2022-11-11T16:30:51;10.50;99.90
285;DHT22;127;48.770;9.212;2022-11-11T16:33:32;10.40;99.90
285;DHT22;127;48.770;9.212;2022-11-11T16:36:08;10.40;99.90
285;DHT22;127;48.770;9.212;2022-11-11T16:38:37;10.30;99.90
285;DHT22;127;48.770;9.212;2022-11-11T16:41:27;10.30;99.90
285;DHT22;127;48.770;9.212;2022-11-11T16:43:58;10.20;99.90
285;DHT22;127;48.770;9.212;2022-11-11T16:46:38;10.20;99.90
285;DHT22;127;48.770;9.212;2022-11-11T16:49:21;10.10;99.90
285;DHT22;127;48.770;9.212;2022-11-11T16:51:54;10.10;99.90
285;DHT22;127;48.770;9.212;2022-11-11T16:54:26;10.00;99.90
285;DHT22;127;48.770;9.212;2022-11-11T16:56:59;10.00;99.90
285;DHT22;127;48.770;9.212;2022-11-11T16:59:36;9.90;99.90
285;DHT22;127;48.770;9.212;2022-11-11T17:02:15;9.80;99.90
285;DHT22;127;48.770;9.212;2022-11-11T17:04:45;9.80;99.90
285;DHT22;127;48.770;9.212;2022-11-11T17:07:28;9.70;99.90
285;DHT22;127;48.770;9.212;2022-11-11T17:13:11;9.60;99.90
285;DHT22;127;48.770;9.212;2022-11-11T17:15:40;9.60;99.90
285;DHT22;127;48.770;9.212;2022-11-11T17:18:08;9.60;99.90
285;DHT22;127;48.770;9.212;2022-11-11T17:20:38;9.50;99.90
285;DHT22;127;48.770;9.212;2022-11-11T17:23:08;9.60;99.90
285;DHT22;127;48.770;9.212;2022-11-11T17:25:36;9.60;99.90
285;DHT22;127;48.770;9.212;2022-11-11T17:28:05;9.50;99.90
285;DHT22;127;48.770;9.212;2022-11-11T17:30:37;9.50;99.90
285;DHT22;127;48.770;9.212;2022-11-11T17:33:06;9.50;99.90
285;DHT22;127;48.770;9.212;2022-11-11T17:35:35;9.50;99.90
285;DHT22;127;48.770;9.212;2022-11-11T17:38:04;9.50;99.90
285;DHT22;127;48.770;9.212;2022-11-11T17:40:33;9.40;99.90
285;DHT22;127;48.770;9.212;2022-11-11T17:43:02;9.40;99.90
285;DHT22;127;48.770;9.212;2022-11-11T17:45:30;9.30;99.90
285;DHT22;127;48.770;9.212;2022-11-11T17:48:02;9.30;99.90
285;DHT22;127;48.770;9.212;2022-11-11T17:50:31;9.20;99.90
285;DHT22;127;48.770;9.212;2022-11-11T17:52:59;9.20;99.90